Time;durP1;ratioP1;P1;durP2;ratioP2;P2;SDS_P1;SDS_P2;PMS_P1;PMS_P2;Temp;Humidity;BMP_temperature;BMP_pressure;BME280_temperature;BME280_humidity;BME280_pressure;Samples;Min_cycle;Max_cycle;Signal;HPM_P1;HPM_P2
2022/04/19 00:00:59;;;;;;;;;10.75;9.75;;;26.27;97148.73;;;;116793;1197;24993;-54
2022/04/19 00:03:30;;;;;;;;;12.25;12.00;;;26.27;97145.21;;;;116769;1197;24876;-55
2022/04/19 00:06:00;;;;;;;;;13.00;12.00;;;26.24;97144.80;;;;116829;1196;24840;-55
2022/04/19 00:08:29;;;;;;;;;11.50;9.75;;;26.27;97142.55;;;;116839;1197;25665;-54
2022/04/19 00:10:59;;;;;;;;;12.25;12.00;;;26.28;97143.67;;;;116671;1197;25020;-55
2022/04/19 00:13:28;;;;;;;;;10.33;8.67;;;26.23;97143.92;;;;116732;1197;25472;-55
2022/04/19 00:15:57;;;;;;;;;12.67;11.67;;;26.20;97147.06;;;;116757;1197;25135;-55
2022/04/19 00:18:29;;;;;;;;;12.00;11.33;;;26.21;97148.55;;;;116783;1198;25555;-56
2022/04/19 00:20:59;;;;;;;;;12.33;10.33;;;26.20;97147.05;;;;116838;1197;25749;-54
2022/04/19 00:23:30;;;;;;;;;11.50;11.25;;;26.23;97146.02;;;;116791;1195;25473;-54
2022/04/19 00:25:57;;;;;;;;;12.00;10.50;;;26.21;97145.73;;;;116770;1197;25416;-55
2022/04/19 00:28:26;;;;;;;;;10.25;10.25;;;26.18;97143.27;;;;116808;1197;24753;-55
2022/04/19 00:30:57;;;;;;;;;9.50;9.00;;;26.18;97141.17;;;;116791;1197;24952;-56
2022/04/19 00:33:28;;;;;;;;;12.75;10.25;;;26.20;97139.64;;;;116553;1198;25204;-56
2022/04/19 00:35:59;;;;;;;;;12.25;10.50;;;26.20;97137.62;;;;116881;1196;26047;-55
2022/04/19 00:38:28;;;;;;;;;10.00;10.00;;;26.22;97138.42;;;;116750;1197;25002;-55
2022/04/19 00:40:56;;;;;;;;;10.33;8.33;;;26.16;97140.01;;;;116782;1196;25505;-55
2022/04/19 00:43:26;;;;;;;;;11.25;8.25;;;26.15;97141.47;;;;116727;1195;24849;-55
2022/04/19 00:45:54;;;;;;;;;12.75;11.00;;;26.11;97141.73;;;;116798;1197;24968;-55
2022/04/19 00:48:23;;;;;;;;;12.50;12.25;;;26.10;97145.51;;;;116747;1197;25408;-55
2022/04/19 00:50:55;;;;;;;;;9.25;8.00;;;26.07;97149.60;;;;116868;1197;25291;-55
2022/04/19 00:53:26;;;;;;;;;13.00;9.00;;;26.08;97146.06;;;;116763;1196;25051;-55
2022/04/19 00:55:59;;;;;;;;;12.00;11.00;;;26.11;97143.43;;;;116692;1196;25452;-55
2022/04/19 00:58:30;;;;;;;;;12.00;10.00;;;26.09;97139.46;;;;116767;1197;25041;-55
2022/04/19 01:00:59;;;;;;;;;8.00;8.00;;;26.05;97134.42;;;;116694;1197;25647;-56
2022/04/19 01:03:29;;;;;;;;;12.50;10.75;;;26.03;97138.81;;;;116841;1197;24746;-56
2022/04/19 01:05:58;;;;;;;;;13.00;11.00;;;26.07;97139.00;;;;116832;1196;25718;-56
2022/04/19 01:08:27;;;;;;;;;6.75;6.75;;;26.05;97135.07;;;;116720;1197;25079;-55
2022/04/19 01:13:17;;;;;;;;;14.33;10.33;;;26.03;97132.32;;;;116801;1197;24950;-55
2022/04/19 01:13:43;;;;;;;;;9.00;7.00;;;26.12;97130.02;;;;116817;1196;24907;-56
2022/04/19 01:16:15;;;;;;;;;10.25;10.25;;;26.13;97134.17;;;;116707;1197;24851;-55
2022/04/19 01:18:45;;;;;;;;;8.33;6.33;;;26.08;97131.95;;;;116701;1197;24746;-56
2022/04/19 01:21:13;;;;;;;;;12.75;12.75;;;26.03;97128.73;;;;116809;1197;25190;-55
2022/04/19 01:23:43;;;;;;;;;9.75;8.75;;;26.05;97122.23;;;;116707;1196;25114;-55
2022/04/19 01:26:14;;;;;;;;;8.00;8.00;;;26.05;97121.86;;;;116823;1197;25268;-54
2022/04/19 01:28:45;;;;;;;;;12.00;9.00;;;26.07;97119.02;;;;116874;1198;25141;-56
2022/04/19 01:31:16;;;;;;;;;13.33;12.00;;;26.12;97120.58;;;;116711;1197;25735;-56
2022/04/19 01:33:46;;;;;;;;;10.67;7.33;;;26.11;97121.05;;;;116595;1197;25071;-55
2022/04/19 01:36:17;;;;;;;;;9.50;8.25;;;26.14;97116.34;;;;116734;1197;25798;-55
2022/04/19 01:38:49;;;;;;;;;9.50;8.50;;;26.16;97113.96;;;;116796;1196;26350;-55
2022/04/19 01:41:18;;;;;;;;;12.50;9.50;;;26.20;97108.77;;;;116722;1197;25473;-54
2022/04/19 01:43:47;;;;;;;;;8.00;8.00;;;26.19;97110.27;;;;116725;1197;24855;-55
2022/04/19 01:46:20;;;;;;;;;10.33;9.00;;;26.18;97116.25;;;;116849;1196;25088;-56
2022/04/19 01:48:50;;;;;;;;;7.50;6.00;;;26.25;97116.86;;;;116701;1197;25218;-54
2022/04/19 01:51:18;;;;;;;;;8.67;7.33;;;26.22;97117.26;;;;116898;1197;25596;-54
2022/04/19 01:53:46;;;;;;;;;9.00;8.50;;;26.25;97115.45;;;;116736;1198;25802;-55
2022/04/19 01:56:16;;;;;;;;;10.67;8.67;;;26.22;97111.18;;;;116837;1196;25009;-54
2022/04/19 01:58:49;;;;;;;;;11.50;10.50;;;26.22;97110.30;;;;116815;1195;24786;-54
2022/04/19 02:01:18;;;;;;;;;10.00;9.50;;;26.27;97110.70;;;;116775;1196;25568;-54
2022/04/19 02:03:52;;;;;;;;;7.33;6.33;;;26.26;97110.25;;;;116856;1197;24749;-55
2022/04/19 02:06:20;;;;;;;;;7.25;7.25;;;26.27;97115.88;;;;116746;1196;26260;-55
2022/04/19 02:08:49;;;;;;;;;9.00;8.00;;;26.25;97116.88;;;;116777;1198;25586;-55
2022/04/19 02:11:19;;;;;;;;;8.33;8.00;;;26.22;97112.14;;;;116802;1196;25728;-54
2022/04/19 02:13:47;;;;;;;;;9.33;8.00;;;26.22;97113.19;;;;116705;1196;25623;-54
2022/04/19 02:16:17;;;;;;;;;10.00;9.50;;;26.19;97114.70;;;;116849;1196;25306;-55
2022/04/19 02:18:48;;;;;;;;;9.25;6.75;;;26.22;97113.39;;;;116851;1196;25644;-53
2022/04/19 02:21:18;;;;;;;;;7.50;7.50;;;26.22;97114.05;;;;116834;1196;25519;-55
2022/04/19 02:23:46;;;;;;;;;7.33;7.33;;;26.21;97115.27;;;;116733;1197;25706;-54
2022/04/19 02:26:14;;;;;;;;;8.75;8.25;;;26.18;97114.90;;;;116801;1197;25532;-54
2022/04/19 02:28:45;;;;;;;;;8.00;8.00;;;26.18;97115.39;;;;116879;1197;25262;-55
2022/04/19 02:31:13;;;;;;;;;9.75;9.25;;;26.19;97115.20;;;;116698;1196;25110;-55
2022/04/19 02:33:43;;;;;;;;;10.50;9.50;;;26.15;97116.22;;;;116858;1197;25426;-53
2022/04/19 02:36:11;;;;;;;;;8.25;8.25;;;26.15;97116.56;;;;116752;1197;25580;-56
2022/04/19 02:38:41;;;;;;;;;8.00;6.67;;;26.14;97118.13;;;;116821;1197;25106;-56
2022/04/19 02:41:14;;;;;;;;;9.00;7.33;;;26.13;97122.48;;;;116733;1197;25284;-54
2022/04/19 02:43:41;;;;;;;;;8.00;7.00;;;26.12;97122.94;;;;116720;1197;25008;-54
2022/04/19 02:46:13;;;;;;;;;11.67;8.67;;;26.09;97124.89;;;;116797;1197;25319;-54
2022/04/19 02:48:43;;;;;;;;;8.75;8.75;;;26.10;97123.11;;;;116774;1197;25389;-55
2022/04/19 02:51:12;;;;;;;;;7.00;7.00;;;26.08;97123.48;;;;116819;1197;25029;-54
2022/04/19 02:53:46;;;;;;;;;10.67;10.67;;;26.10;97127.48;;;;116757;1197;25000;-54
2022/04/19 02:56:15;;;;;;;;;8.50;7.25;;;26.09;97128.33;;;;116711;1197;25643;-55
2022/04/19 02:58:48;;;;;;;;;6.33;5.33;;;26.06;97128.23;;;;116752;1197;25477;-53
2022/04/19 03:01:16;;;;;;;;;7.33;7.33;;;26.05;97125.77;;;;116812;1197;26000;-54
2022/04/19 03:03:45;;;;;;;;;8.00;6.33;;;26.04;97124.80;;;;116769;1196;26419;-56
2022/04/19 03:06:14;;;;;;;;;7.00;7.00;;;26.03;97124.10;;;;116796;1196;24709;-55
2022/04/19 03:08:42;;;;;;;;;6.25;6.25;;;26.02;97126.98;;;;116757;1198;25492;-56
2022/04/19 03:11:12;;;;;;;;;7.67;6.67;;;25.98;97127.08;;;;116819;1197;24887;-55
2022/04/19 03:13:43;;;;;;;;;11.25;8.00;;;26.02;97134.78;;;;116778;1196;25266;-54
2022/04/19 03:16:14;;;;;;;;;12.00;11.00;;;26.01;97137.77;;;;116757;1197;25446;-55
2022/04/19 03:18:46;;;;;;;;;10.00;6.67;;;25.96;97136.58;;;;116738;1196;25795;-55
2022/04/19 03:21:17;;;;;;;;;10.00;10.00;;;25.98;97137.88;;;;116800;1197;24980;-56
2022/04/19 03:29:22;;;;;;;;;10.00;8.25;;;25.95;97143.45;;;;116541;1197;24782;-54
2022/04/19 03:31:51;;;;;;;;;8.75;7.75;;;25.93;97143.77;;;;116638;1197;25167;-54
2022/04/19 03:34:20;;;;;;;;;10.00;7.67;;;25.94;97145.54;;;;116600;1198;25592;-55
2022/04/19 03:36:52;;;;;;;;;8.25;8.00;;;25.89;97148.40;;;;116821;1196;26406;-55
2022/04/19 03:39:21;;;;;;;;;9.67;8.33;;;25.94;97154.90;;;;116697;1197;25608;-54
2022/04/19 03:41:50;;;;;;;;;6.67;6.00;;;25.92;97156.84;;;;116775;1197;25722;-55
2022/04/19 03:44:18;;;;;;;;;7.67;7.67;;;25.91;97152.66;;;;116818;1197;24912;-55
2022/04/19 03:49:35;;;;;;;;;13.00;7.50;;;25.93;97152.56;;;;116804;1197;25619;-55
2022/04/19 03:52:04;;;;;;;;;10.50;8.00;;;25.82;97154.70;;;;116752;1198;25525;-56
2022/04/19 03:54:34;;;;;;;;;9.67;7.67;;;25.77;97156.87;;;;116807;1197;25688;-53
2022/04/19 03:57:07;;;;;;;;;11.50;8.50;;;25.75;97157.14;;;;116872;1197;25467;-55
2022/04/19 03:59:38;;;;;;;;;11.25;9.75;;;25.77;97156.88;;;;116833;1196;24774;-56
2022/04/19 04:02:08;;;;;;;;;12.50;10.75;;;25.79;97156.73;;;;116901;1197;24817;-56
2022/04/19 04:04:37;;;;;;;;;10.00;9.00;;;25.79;97157.33;;;;117021;1196;25459;-55
2022/04/19 04:07:06;;;;;;;;;19.00;10.00;;;25.85;97155.65;;;;116682;1198;25264;-55
2022/04/19 04:09:39;;;;;;;;;17.75;10.00;;;25.81;97156.63;;;;116732;1196;24769;-56
2022/04/19 04:12:11;;;;;;;;;12.00;10.00;;;25.78;97154.47;;;;116836;1197;24772;-56
2022/04/19 04:14:44;;;;;;;;;15.67;9.67;;;25.84;97154.81;;;;116838;1197;25777;-51
2022/04/19 04:17:12;;;;;;;;;9.50;4.00;;;25.89;97155.22;;;;116906;1197;26213;-52
2022/04/19 04:19:41;;;;;;;;;13.33;11.33;;;25.91;97160.23;;;;116715;1197;24965;-53
2022/04/19 04:22:09;;;;;;;;;12.00;10.00;;;25.81;97163.08;;;;116777;1196;25216;-53
2022/04/19 04:24:42;;;;;;;;;12.00;11.50;;;25.79;97162.40;;;;117142;1197;24970;-52
2022/04/19 04:27:12;;;;;;;;;16.00;14.00;;;25.95;97164.30;;;;116820;1197;25033;-52
2022/04/19 04:29:42;;;;;;;;;21.00;17.67;;;25.81;97167.20;;;;116847;1198;25115;-52
2022/04/19 04:32:11;;;;;;;;;26.50;19.50;;;25.69;97174.59;;;;116828;1196;24795;-52
2022/04/19 04:34:40;;;;;;;;;25.50;19.50;;;25.52;97172.55;;;;116850;1197;24731;-52
2022/04/19 04:37:09;;;;;;;;;26.00;22.00;;;25.41;97173.40;;;;116797;1196;25629;-52
2022/04/19 04:39:41;;;;;;;;;23.67;19.00;;;25.27;97175.68;;;;116786;1196;25647;-52
2022/04/19 04:42:12;;;;;;;;;18.33;16.00;;;25.10;97174.77;;;;116860;1197;24807;-52
2022/04/19 04:44:40;;;;;;;;;18.67;13.33;;;25.00;97179.27;;;;116728;1198;25055;-53
2022/04/19 04:50:16;;;;;;;;;18.00;17.00;;;24.89;97181.50;;;;116419;1200;25001;-54
2022/04/19 04:52:44;;;;;;;;;17.00;14.33;;;24.73;97187.04;;;;116646;1197;25801;-52
2022/04/19 04:55:14;;;;;;;;;18.00;15.00;;;24.57;97188.65;;;;116726;1197;24922;-52
2022/04/19 04:57:43;;;;;;;;;16.67;13.00;;;24.47;97186.36;;;;116492;1196;25121;-52
2022/04/19 05:00:14;;;;;;;;;16.50;14.00;;;24.35;97185.55;;;;116581;1196;25580;-51
2022/04/19 05:02:44;;;;;;;;;19.67;14.33;;;24.26;97185.43;;;;116469;1195;24935;-52
2022/04/19 05:05:12;;;;;;;;;19.33;13.33;;;24.19;97187.16;;;;116532;1197;25352;-51
2022/04/19 05:07:42;;;;;;;;;12.00;11.67;;;24.11;97192.16;;;;116692;1196;25626;-50
2022/04/19 05:10:14;;;;;;;;;15.00;11.50;;;24.08;97193.34;;;;116554;1197;25050;-51
2022/04/19 05:12:45;;;;;;;;;14.67;12.67;;;24.03;97198.36;;;;116564;1196;25551;-52
2022/04/19 05:15:15;;;;;;;;;14.00;13.50;;;23.97;97200.33;;;;116657;1197;25186;-51
2022/04/19 05:17:46;;;;;;;;;20.50;16.50;;;23.94;97198.34;;;;116734;1197;25639;-53
2022/04/19 05:20:17;;;;;;;;;4.50;2.50;;;23.86;97197.88;;;;116778;1197;25138;-50
2022/04/19 05:22:47;;;;;;;;;22.00;16.00;;;23.83;97204.08;;;;116703;1197;25405;-51
2022/04/19 05:25:17;;;;;;;;;24.50;21.00;;;23.77;97206.52;;;;116738;1197;26231;-51
2022/04/19 05:27:49;;;;;;;;;21.00;17.00;;;23.74;97209.92;;;;116831;1198;25594;-52
2022/04/19 05:30:18;;;;;;;;;21.33;19.33;;;23.75;97209.58;;;;116757;1197;24820;-52
2022/04/19 05:32:50;;;;;;;;;26.00;17.50;;;23.69;97211.17;;;;116764;1196;25771;-52
2022/04/19 05:35:19;;;;;;;;;22.33;17.33;;;23.65;97209.61;;;;116962;1197;24807;-52
2022/04/19 05:37:50;;;;;;;;;19.00;18.00;;;23.69;97212.61;;;;116916;1197;25841;-49
2022/04/19 05:40:18;;;;;;;;;23.00;17.50;;;23.69;97212.78;;;;116800;1197;26254;-51
2022/04/19 05:42:46;;;;;;;;;21.33;16.67;;;23.59;97213.48;;;;116777;1197;25514;-52
2022/04/19 05:45:24;;;;;;;;;17.50;16.50;;;23.51;97214.40;;;;116773;1197;25525;-53
2022/04/19 05:47:52;;;;;;;;;15.50;15.50;;;23.45;97213.63;;;;117310;1197;25603;-53
2022/04/19 05:50:23;;;;;;;;;19.67;17.00;;;23.65;97212.44;;;;117033;1196;25689;-53
2022/04/19 05:52:53;;;;;;;;;14.50;13.50;;;23.80;97215.95;;;;116957;1197;25709;-55
2022/04/19 05:55:23;;;;;;;;;18.50;13.50;;;23.94;97214.08;;;;117017;1197;25664;-52
2022/04/19 05:57:57;;;;;;;;;21.67;17.00;;;24.12;97215.42;;;;116917;1196;25196;-55
2022/04/19 06:00:34;;;;;;;;;18.00;14.00;;;24.26;97212.23;;;;116631;1197;25697;-52
2022/04/19 06:05:58;;;;;;;;;21.00;17.00;;;24.56;97211.40;;;;117097;1197;25418;-56
2022/04/19 06:08:31;;;;;;;;;22.67;17.00;;;24.74;97210.43;;;;116619;1198;25188;-53
2022/04/19 06:11:01;;;;;;;;;21.50;14.00;;;24.75;97208.48;;;;116777;1197;25626;-49
2022/04/19 06:13:32;;;;;;;;;22.33;15.67;;;24.81;97209.58;;;;116751;1197;25854;-47
2022/04/19 06:16:05;;;;;;;;;22.33;16.33;;;24.94;97210.73;;;;117410;1197;25245;-55
2022/04/19 06:18:42;;;;;;;;;23.33;17.33;;;25.26;97214.13;;;;116612;1198;24883;-56
2022/04/19 06:21:15;;;;;;;;;29.50;20.00;;;25.33;97214.14;;;;116668;1197;25269;-54
2022/04/19 06:23:50;;;;;;;;;27.50;19.50;;;25.39;97212.31;;;;116960;1196;25794;-49
2022/04/19 06:26:20;;;;;;;;;26.00;19.00;;;25.54;97212.53;;;;116710;1197;24844;-52
2022/04/19 06:28:50;;;;;;;;;40.33;22.33;;;25.63;97211.32;;;;116783;1197;25103;-50
2022/04/19 06:31:20;;;;;;;;;28.00;19.50;;;25.67;97212.51;;;;116695;1196;26684;-51
2022/04/19 06:33:51;;;;;;;;;35.00;20.33;;;25.69;97209.59;;;;117005;1197;25738;-52
2022/04/19 06:36:19;;;;;;;;;32.50;23.00;;;25.86;97209.92;;;;116933;1197;24898;-52
2022/04/19 06:38:47;;;;;;;;;28.67;21.33;;;25.92;97211.94;;;;116845;1196;24849;-56
2022/04/19 06:41:20;;;;;;;;;26.00;19.00;;;25.97;97212.38;;;;117003;1196;24882;-56
2022/04/19 06:43:58;;;;;;;;;37.00;29.00;;;26.07;97208.62;;;;116917;1196;25173;-56
2022/04/19 06:46:31;;;;;;;;;33.33;24.67;;;26.17;97206.19;;;;116873;1197;24936;-55
2022/04/19 06:48:59;;;;;;;;;30.50;23.00;;;26.15;97207.29;;;;116903;1197;25189;-55
2022/04/19 06:51:30;;;;;;;;;35.50;26.00;;;26.14;97206.52;;;;116952;1196;24775;-56
2022/04/19 06:54:00;;;;;;;;;45.00;30.00;;;26.19;97207.42;;;;116901;1197;25058;-55
2022/04/19 06:56:31;;;;;;;;;47.00;32.00;;;26.20;97203.58;;;;116834;1197;25243;-49
2022/04/19 06:59:00;;;;;;;;;39.00;27.50;;;26.20;97201.34;;;;117005;1197;25597;-52
2022/04/19 07:01:40;;;;;;;;;37.33;30.00;;;26.25;97198.39;;;;116856;1197;25585;-56
2022/04/19 07:04:12;;;;;;;;;45.67;33.00;;;26.28;97196.70;;;;117110;1197;25077;-53
2022/04/19 07:06:42;;;;;;;;;42.50;28.50;;;26.31;97195.92;;;;116884;1196;24983;-58
2022/04/19 07:09:15;;;;;;;;;46.00;32.50;;;26.30;97196.91;;;;116872;1197;25453;-55
2022/04/19 07:11:45;;;;;;;;;48.00;31.00;;;26.28;97194.19;;;;117109;1196;25644;-51
2022/04/19 07:14:13;;;;;;;;;46.00;34.00;;;26.40;97193.27;;;;116840;1196;25652;-53
2022/04/19 07:16:41;;;;;;;;;44.00;31.00;;;26.42;97194.69;;;;116866;1196;25436;-55
2022/04/19 07:19:14;;;;;;;;;36.67;26.00;;;26.43;97195.44;;;;117004;1197;25648;-56
2022/04/19 07:27:30;;;;;;;;;32.33;25.00;;;26.50;97195.61;;;;116935;1197;26144;-56
2022/04/19 07:29:58;;;;;;;;;33.00;22.00;;;26.44;97192.95;;;;117015;1198;25182;-49
2022/04/19 07:32:26;;;;;;;;;29.00;23.00;;;26.44;97189.76;;;;116899;1197;25201;-55
2022/04/19 07:34:56;;;;;;;;;36.75;24.50;;;26.45;97190.67;;;;116879;1197;24775;-55
2022/04/19 07:37:29;;;;;;;;;34.00;22.00;;;26.49;97186.67;;;;116908;1197;25215;-55
2022/04/19 07:39:59;;;;;;;;;31.67;20.33;;;26.48;97185.28;;;;116841;1197;25593;-55
2022/04/19 07:42:28;;;;;;;;;23.67;18.00;;;26.48;97187.52;;;;116988;1197;25417;-56
2022/04/19 07:44:58;;;;;;;;;31.00;24.00;;;26.55;97182.04;;;;116827;1197;25642;-55
2022/04/19 07:47:28;;;;;;;;;34.50;18.50;;;26.55;97179.08;;;;117002;1197;25601;-55
2022/04/19 07:49:57;;;;;;;;;27.33;21.67;;;26.60;97173.58;;;;116973;1196;25631;-55
2022/04/19 07:52:25;;;;;;;;;21.50;17.50;;;26.64;97174.86;;;;116917;1196;24909;-56
2022/04/19 07:54:55;;;;;;;;;17.50;14.00;;;26.61;97171.94;;;;116980;1197;24867;-57
2022/04/19 07:57:27;;;;;;;;;22.00;14.00;;;26.62;97170.89;;;;117014;1197;24988;-57
2022/04/19 08:00:02;;;;;;;;;21.50;15.25;;;26.61;97171.36;;;;116892;1197;25474;-55
2022/04/19 08:02:32;;;;;;;;;20.67;14.67;;;26.54;97166.20;;;;116975;1197;25389;-55
2022/04/19 08:05:00;;;;;;;;;27.00;17.50;;;26.50;97162.23;;;;116891;1197;26363;-55
2022/04/19 08:07:30;;;;;;;;;23.25;16.25;;;26.48;97162.88;;;;117100;1196;24900;-56
2022/04/19 08:10:03;;;;;;;;;23.00;18.00;;;26.52;97159.20;;;;116866;1197;25651;-56
2022/04/19 08:12:32;;;;;;;;;28.25;17.75;;;26.41;97161.25;;;;116947;1197;25344;-55
2022/04/19 08:15:02;;;;;;;;;25.00;15.25;;;26.37;97159.46;;;;116910;1197;25950;-56
2022/04/19 08:17:35;;;;;;;;;19.00;14.25;;;26.31;97159.13;;;;117090;1197;26943;-55
2022/04/19 08:20:08;;;;;;;;;16.00;12.50;;;26.30;97160.95;;;;116857;1196;25296;-54
2022/04/19 08:22:41;;;;;;;;;23.33;15.67;;;26.26;97159.84;;;;116983;1196;25542;-56
2022/04/19 08:25:12;;;;;;;;;21.75;13.00;;;26.23;97156.23;;;;116902;1196;25005;-55
2022/04/19 08:27:49;;;;;;;;;18.00;14.50;;;26.16;97156.45;;;;116798;1197;25069;-54
2022/04/19 08:30:23;;;;;;;;;28.50;18.25;;;26.08;97153.67;;;;116979;1195;24849;-56
2022/04/19 08:32:56;;;;;;;;;26.00;16.00;;;26.07;97156.60;;;;116905;1197;25730;-54
2022/04/19 08:35:26;;;;;;;;;20.00;15.33;;;26.02;97154.72;;;;116917;1196;25666;-55
2022/04/19 08:37:58;;;;;;;;;25.33;16.67;;;26.00;97155.19;;;;116984;1197;25277;-56
2022/04/19 08:40:32;;;;;;;;;24.33;16.67;;;26.03;97150.34;;;;116912;1197;25104;-55
2022/04/19 08:43:14;;;;;;;;;27.00;17.00;;;26.07;97152.86;;;;116636;1198;25457;-54
2022/04/19 08:45:43;;;;;;;;;22.00;14.00;;;26.05;97152.97;;;;116840;1197;24794;-55
2022/04/19 08:48:18;;;;;;;;;20.33;15.00;;;26.06;97144.70;;;;116938;1197;25684;-52
2022/04/19 08:50:54;;;;;;;;;21.67;12.33;;;26.18;97148.76;;;;116798;1196;25426;-50
2022/04/19 08:59:29;;;;;;;;;19.50;13.50;;;26.34;97145.61;;;;116690;1197;24972;-52
2022/04/19 09:01:59;;;;;;;;;15.67;12.67;;;26.42;97142.30;;;;116713;1197;25736;-51
2022/04/19 09:04:33;;;;;;;;;19.00;12.00;;;26.39;97139.48;;;;116763;1197;25065;-56
2022/04/19 09:07:04;;;;;;;;;20.67;12.33;;;26.40;97140.48;;;;116923;1196;25520;-53
2022/04/19 09:09:37;;;;;;;;;23.00;15.33;;;26.45;97144.70;;;;116808;1196;26158;-52
2022/04/19 09:12:12;;;;;;;;;18.00;12.00;;;26.46;97141.59;;;;116772;1198;25210;-53
2022/04/19 09:15:03;;;;;;;;;18.00;11.67;;;26.47;97139.85;;;;117835;1195;25456;-47
2022/04/19 09:17:45;;;;;;;;;17.75;14.00;;;26.93;97139.95;;;;116881;1197;25833;-53
2022/04/19 09:20:19;;;;;;;;;21.00;14.00;;;26.93;97142.51;;;;116809;1196;24960;-54
2022/04/19 09:23:04;;;;;;;;;19.00;14.33;;;26.86;97137.58;;;;116767;1198;25221;-51
2022/04/19 09:25:35;;;;;;;;;21.00;13.00;;;26.85;97136.38;;;;116931;1196;25552;-49
2022/04/19 09:28:26;;;;;;;;;21.50;15.50;;;26.88;97134.65;;;;116745;1196;25794;-51
2022/04/19 09:31:02;;;;;;;;;19.50;16.00;;;26.85;97136.61;;;;116784;1196;25352;-53
2022/04/19 09:33:32;;;;;;;;;22.00;13.67;;;26.79;97133.90;;;;116832;1196;25026;-52
2022/04/19 09:36:05;;;;;;;;;24.25;20.50;;;26.79;97130.27;;;;116852;1197;25680;-54
2022/04/19 09:38:46;;;;;;;;;17.50;10.00;;;26.83;97128.55;;;;116965;1197;25673;-54
2022/04/19 09:41:15;;;;;;;;;24.00;14.00;;;26.83;97121.38;;;;116985;1197;25543;-54
2022/04/19 09:44:09;;;;;;;;;19.75;12.50;;;26.81;97125.89;;;;116801;1198;25370;-55
2022/04/19 09:46:41;;;;;;;;;14.00;8.75;;;26.76;97127.69;;;;116862;1197;25405;-55
2022/04/19 09:49:12;;;;;;;;;15.25;9.00;;;26.72;97122.58;;;;117007;1197;25208;-55
2022/04/19 09:51:42;;;;;;;;;13.00;8.75;;;26.74;97120.46;;;;116790;1197;25098;-55
2022/04/19 09:54:23;;;;;;;;;15.00;8.50;;;26.64;97113.34;;;;116862;1197;25324;-55
2022/04/19 09:56:56;;;;;;;;;22.50;11.00;;;26.60;97114.45;;;;116701;1196;24929;-56
2022/04/19 09:59:31;;;;;;;;;15.50;11.75;;;26.73;97114.86;;;;116721;1196;24848;-55
2022/04/19 10:10:28;;;;;;;;;14.50;11.75;;;27.05;97107.06;;;;116604;1197;25215;-50
2022/04/19 10:13:07;;;;;;;;;18.67;13.00;;;27.00;97104.13;;;;116766;1197;24907;-54
2022/04/19 10:15:37;;;;;;;;;16.50;10.50;;;27.02;97103.02;;;;116838;1197;25574;-52
2022/04/19 10:18:09;;;;;;;;;20.75;15.50;;;27.06;97108.30;;;;116474;1197;24856;-48
2022/04/19 10:20:42;;;;;;;;;20.00;14.50;;;26.98;97110.78;;;;116607;1197;24898;-56
2022/04/19 10:23:10;;;;;;;;;14.67;11.67;;;26.96;97113.36;;;;116560;1197;25619;-51
2022/04/19 10:25:46;;;;;;;;;12.00;9.50;;;26.94;97111.25;;;;116611;1197;24813;-53
2022/04/19 10:28:25;;;;;;;;;17.25;12.50;;;26.97;97111.23;;;;116731;1197;24903;-54
2022/04/19 10:31:00;;;;;;;;;18.75;15.25;;;27.06;97107.50;;;;116715;1197;25150;-53
2022/04/19 10:33:41;;;;;;;;;14.50;10.00;;;27.08;97108.38;;;;116634;1198;25276;-52
2022/04/19 10:36:42;;;;;;;;;12.50;10.25;;;27.09;97107.05;;;;116655;1196;25013;-51
2022/04/19 10:39:16;;;;;;;;;8.50;7.25;;;27.15;97103.81;;;;116766;1196;26423;-55
2022/04/19 10:41:58;;;;;;;;;11.25;9.00;;;27.19;97104.80;;;;116942;1197;25592;-56
2022/04/19 10:44:50;;;;;;;;;14.00;11.75;;;27.24;97105.92;;;;116844;1197;24878;-50
2022/04/19 10:47:23;;;;;;;;;15.50;12.75;;;27.30;97103.55;;;;116771;1197;24975;-55
2022/04/19 10:50:09;;;;;;;;;14.33;8.67;;;27.37;97106.34;;;;117052;1196;25176;-52
2022/04/19 10:52:40;;;;;;;;;13.00;11.25;;;27.50;97101.61;;;;116814;1197;25544;-55
2022/04/19 10:55:24;;;;;;;;;15.00;9.50;;;27.51;97108.26;;;;116914;1197;25544;-51
2022/04/19 10:58:23;;;;;;;;;11.67;8.33;;;27.56;97110.50;;;;116604;1197;24793;-52
2022/04/19 11:01:00;;;;;;;;;12.50;9.50;;;27.52;97107.02;;;;117296;1197;25725;-55
2022/04/19 11:03:49;;;;;;;;;20.50;13.00;;;27.68;97109.89;;;;116903;1197;25709;-49
2022/04/19 11:06:50;;;;;;;;;14.00;7.75;;;27.73;97110.08;;;;116849;1197;25145;-57
2022/04/19 11:09:22;;;;;;;;;11.00;9.00;;;27.85;97113.55;;;;116507;1196;26165;-52
2022/04/19 11:11:56;;;;;;;;;10.67;7.33;;;27.76;97113.58;;;;117375;1197;24804;-56
2022/04/19 11:14:29;;;;;;;;;12.00;8.25;;;27.94;97117.40;;;;116977;1196;25366;-54
2022/04/19 11:17:21;;;;;;;;;9.00;6.00;;;27.93;97116.44;;;;116931;1197;25054;-55
2022/04/19 11:20:15;;;;;;;;;14.67;8.00;;;28.03;97111.91;;;;117057;1196;25806;-52
2022/04/19 11:22:46;;;;;;;;;12.67;9.00;;;28.01;97112.91;;;;117250;1197;25583;-53
2022/04/19 11:25:38;;;;;;;;;14.00;10.33;;;28.04;97112.73;;;;117271;1196;24902;-55
2022/04/19 11:28:17;;;;;;;;;9.00;8.00;;;28.19;97111.23;;;;116823;1196;25346;-47
2022/04/19 11:31:07;;;;;;;;;13.00;7.33;;;28.09;97104.89;;;;116776;1197;25341;-50
2022/04/19 11:33:39;;;;;;;;;11.33;10.33;;;28.09;97106.83;;;;117029;1196;25623;-55
2022/04/19 11:36:15;;;;;;;;;17.67;10.00;;;28.11;97109.85;;;;116829;1196;25283;-56
2022/04/19 11:38:46;;;;;;;;;12.00;9.25;;;28.08;97099.70;;;;117095;1197;25598;-57
2022/04/19 11:46:48;;;;;;;;;14.25;8.00;;;27.91;97094.70;;;;116893;1198;25585;-57
2022/04/19 11:49:51;;;;;;;;;9.50;7.00;;;27.84;97096.86;;;;116933;1196;25484;-57
2022/04/19 11:52:23;;;;;;;;;10.00;7.33;;;27.88;97090.21;;;;116914;1197;25018;-57
2022/04/19 11:54:57;;;;;;;;;10.33;7.00;;;27.89;97089.45;;;;117019;1197;25271;-59
2022/04/19 11:57:27;;;;;;;;;10.25;7.50;;;27.88;97087.59;;;;116592;1198;24848;-52
2022/04/19 11:59:56;;;;;;;;;10.50;9.00;;;27.77;97094.42;;;;117030;1197;25184;-56
2022/04/19 12:02:30;;;;;;;;;9.00;8.00;;;27.75;97093.33;;;;116891;1198;24973;-55
2022/04/19 12:05:06;;;;;;;;;15.00;8.00;;;27.70;97084.81;;;;116881;1197;25100;-55
2022/04/19 12:07:44;;;;;;;;;9.00;8.33;;;27.65;97086.70;;;;116917;1197;25147;-56
2022/04/19 12:10:14;;;;;;;;;14.50;8.00;;;27.55;97083.98;;;;116847;1197;25811;-58
2022/04/19 12:12:43;;;;;;;;;11.00;6.67;;;27.62;97082.86;;;;116464;1196;25240;-58
2022/04/19 12:15:12;;;;;;;;;10.00;7.00;;;27.54;97082.27;;;;116754;1197;24911;-54
2022/04/19 12:17:49;;;;;;;;;11.00;7.25;;;27.58;97083.76;;;;116969;1196;26427;-51
2022/04/19 12:20:27;;;;;;;;;16.00;9.00;;;27.64;97084.46;;;;117049;1197;24799;-49
2022/04/19 12:23:01;;;;;;;;;13.50;8.50;;;27.76;97077.02;;;;117031;1198;25417;-53
2022/04/19 12:25:33;;;;;;;;;16.00;8.00;;;27.75;97083.38;;;;117030;1196;25618;-53
2022/04/19 12:28:10;;;;;;;;;10.00;6.25;;;27.75;97083.08;;;;116825;1198;25224;-53
2022/04/19 12:30:49;;;;;;;;;19.33;10.00;;;27.72;97082.82;;;;116848;1197;25354;-57
2022/04/19 12:33:20;;;;;;;;;14.25;9.50;;;27.69;97075.54;;;;116949;1196;25132;-55
2022/04/19 12:35:58;;;;;;;;;14.25;9.00;;;27.68;97081.92;;;;116769;1197;25426;-56
2022/04/19 12:38:31;;;;;;;;;17.75;9.00;;;27.63;97079.13;;;;116539;1198;24755;-54
2022/04/19 12:40:59;;;;;;;;;14.33;10.33;;;27.58;97080.80;;;;116541;1197;25482;-53
2022/04/19 12:43:46;;;;;;;;;22.50;11.00;;;27.51;97077.96;;;;116886;1197;25019;-53
2022/04/19 12:46:30;;;;;;;;;30.00;13.50;;;27.53;97076.38;;;;116768;1197;25136;-54
2022/04/19 12:48:59;;;;;;;;;25.25;14.00;;;27.52;97080.70;;;;116865;1196;26565;-56
2022/04/19 12:51:27;;;;;;;;;21.67;13.33;;;27.49;97082.32;;;;117016;1196;25597;-52
2022/04/19 12:54:08;;;;;;;;;25.00;8.50;;;27.50;97083.20;;;;116786;1197;25724;-54
2022/04/19 12:56:36;;;;;;;;;17.75;11.50;;;27.46;97082.09;;;;117168;1196;25159;-52
2022/04/19 12:59:06;;;;;;;;;24.75;12.25;;;27.49;97081.08;;;;116981;1197;25612;-53
2022/04/19 13:01:40;;;;;;;;;22.00;8.33;;;27.51;97080.77;;;;117051;1196;25336;-52